Terminal Aerodrome Forecast
Issued by NWS

Home | Current Version | Previous Version | Text Only | Print | Product List | Glossary On
Versions: 1 2 3 4 5 6 7 8 9 10 11 12 13 14 15 16 17 18 19 20
000
FTUS43 KGRB 232330
TAFMTW
TAF
KMTW 232330Z 2400/2424 12006KT P6SM SCT035 BKN050
     FM240300 01005KT P6SM SCT100
     FM240500 01005KT P6SM BKN090
     FM241400 02006KT P6SM SCT045=

USA.gov is the U.S. government's official web portal to all federal, state and local government web resources and services.